createdAt,value
2018-08-22T00:01:58.368Z,11.20
2018-08-22T00:04:25.948Z,11.77
2018-08-22T00:06:53.513Z,12.30
2018-08-22T00:09:21.096Z,15.57
2018-08-22T00:11:48.717Z,16.23
2018-08-22T00:14:16.352Z,12.50
2018-08-22T00:16:43.913Z,12.77
2018-08-22T00:19:11.504Z,13.13
2018-08-22T00:21:39.065Z,13.40
2018-08-22T00:24:06.645Z,11.53
2018-08-22T00:26:34.213Z,15.40
2018-08-22T00:29:01.851Z,12.30
2018-08-22T00:31:29.392Z,13.40
2018-08-22T00:33:56.984Z,13.27
2018-08-22T00:36:24.557Z,11.30
2018-08-22T00:38:52.161Z,14.40
2018-08-22T00:41:19.734Z,13.87
2018-08-22T00:43:47.301Z,13.70
2018-08-22T00:46:14.880Z,13.47
2018-08-22T00:48:42.440Z,12.60
2018-08-22T00:51:10.041Z,17.50
2018-08-22T00:53:37.601Z,15.90
2018-08-22T00:56:05.224Z,12.60
2018-08-22T00:58:32.801Z,13.50
2018-08-22T01:01:00.365Z,15.17
2018-08-22T01:03:27.951Z,12.67
2018-08-22T01:05:55.529Z,12.53
2018-08-22T01:08:23.093Z,12.90
2018-08-22T01:10:50.672Z,12.47
2018-08-22T01:13:18.231Z,14.20
2018-08-22T01:15:45.842Z,15.00
2018-08-22T01:18:14.240Z,15.77
2018-08-22T01:20:41.880Z,14.03
2018-08-22T01:23:09.496Z,12.50
2018-08-22T01:25:37.097Z,11.67
2018-08-22T01:28:04.669Z,12.07
2018-08-22T01:30:33.236Z,13.50
2018-08-22T01:33:00.810Z,14.27
2018-08-22T01:35:28.406Z,14.13
2018-08-22T01:37:55.985Z,13.87
2018-08-22T01:40:23.576Z,14.23
2018-08-22T01:42:51.167Z,14.80
2018-08-22T01:45:19.798Z,15.30
2018-08-22T01:47:47.424Z,12.37
2018-08-22T01:50:16.000Z,12.90
2018-08-22T01:52:44.600Z,13.50
2018-08-22T01:55:12.164Z,19.50
2018-08-22T01:57:39.752Z,13.53
2018-08-22T02:00:07.836Z,15.83
2018-08-22T02:02:35.405Z,13.53
2018-08-22T02:05:03.188Z,14.77
2018-08-22T02:07:30.793Z,13.63
2018-08-22T02:09:58.393Z,14.47
2018-08-22T02:12:25.965Z,13.73
2018-08-22T02:14:53.545Z,21.17
2018-08-22T02:17:21.144Z,14.70
2018-08-22T02:19:48.704Z,16.60
2018-08-22T02:22:16.414Z,15.73
2018-08-22T02:24:44.004Z,14.10
2018-08-22T02:27:11.630Z,13.03
2018-08-22T02:29:39.205Z,15.20
2018-08-22T02:32:06.961Z,14.13
2018-08-22T02:34:34.522Z,14.77
2018-08-22T02:37:02.116Z,14.83
2018-08-22T02:39:29.682Z,14.33
2018-08-22T02:41:57.241Z,13.80
2018-08-22T02:44:24.857Z,14.10
2018-08-22T02:46:52.430Z,14.23
2018-08-22T02:49:20.016Z,13.40
2018-08-22T02:51:47.576Z,13.50
2018-08-22T02:54:15.177Z,13.60
2018-08-22T02:56:42.733Z,14.67
2018-08-22T02:59:10.325Z,14.27
2018-08-22T03:01:38.975Z,14.53
2018-08-22T03:04:06.557Z,12.00
2018-08-22T03:06:34.141Z,14.07
2018-08-22T03:09:01.710Z,14.10
2018-08-22T03:11:29.297Z,14.27
2018-08-22T03:13:56.932Z,13.20
2018-08-22T03:16:24.519Z,14.47
2018-08-22T03:18:58.347Z,14.40
2018-08-22T03:21:26.026Z,14.77
2018-08-22T03:23:53.769Z,13.23
2018-08-22T03:26:21.341Z,13.47
2018-08-22T03:28:48.910Z,14.47
2018-08-22T03:31:17.841Z,14.73
2018-08-22T03:33:45.450Z,13.13
2018-08-22T03:36:13.013Z,12.57
2018-08-22T03:38:40.600Z,15.20
2018-08-22T03:41:08.206Z,13.43
2018-08-22T03:43:35.797Z,14.60
2018-08-22T03:46:04.441Z,15.17
2018-08-22T03:48:32.037Z,12.63
2018-08-22T03:50:59.700Z,14.97
2018-08-22T03:53:27.356Z,15.20
2018-08-22T03:55:55.773Z,13.47
2018-08-22T03:58:23.377Z,14.47
2018-08-22T04:00:50.941Z,16.43
2018-08-22T04:03:18.553Z,14.77
2018-08-22T04:05:46.126Z,14.93
2018-08-22T04:08:13.722Z,15.27
2018-08-22T04:10:41.307Z,14.93
2018-08-22T04:13:08.932Z,16.47
2018-08-22T04:15:36.516Z,15.30
2018-08-22T04:18:04.201Z,16.90
2018-08-22T04:20:31.789Z,13.83
2018-08-22T04:22:59.359Z,17.20
2018-08-22T04:25:26.962Z,14.83
2018-08-22T04:27:54.528Z,13.67
2018-08-22T04:30:22.117Z,13.77
2018-08-22T04:32:49.688Z,13.67
2018-08-22T04:35:17.242Z,14.47
2018-08-22T04:37:44.829Z,14.20
2018-08-22T04:40:13.393Z,13.90
2018-08-22T04:42:40.994Z,14.30
2018-08-22T04:45:08.602Z,14.23
2018-08-22T04:47:36.197Z,15.93
2018-08-22T04:50:03.817Z,13.33
2018-08-22T04:52:31.420Z,12.83
2018-08-22T04:54:58.996Z,13.50
2018-08-22T04:57:26.577Z,13.87
2018-08-22T04:59:54.149Z,16.10
2018-08-22T05:02:21.741Z,13.67
2018-08-22T05:04:49.369Z,12.63
2018-08-22T05:07:16.942Z,13.00
2018-08-22T05:09:44.557Z,15.80
2018-08-22T05:12:12.156Z,15.43
2018-08-22T05:14:39.729Z,20.77
2018-08-22T05:17:07.366Z,15.13
2018-08-22T05:19:35.029Z,12.33
2018-08-22T05:22:02.617Z,13.13
2018-08-22T05:24:30.201Z,13.53
2018-08-22T05:26:57.826Z,13.10
2018-08-22T05:29:25.413Z,12.80
2018-08-22T05:31:53.041Z,13.07
2018-08-22T05:34:20.616Z,12.60
2018-08-22T05:36:48.178Z,13.00
2018-08-22T05:39:15.761Z,13.03
2018-08-22T05:41:45.480Z,15.90
2018-08-22T05:44:13.053Z,12.33
2018-08-22T05:46:40.613Z,12.90
2018-08-22T05:49:08.218Z,12.27
2018-08-22T05:51:35.801Z,11.90
2018-08-22T05:54:03.385Z,12.63
2018-08-22T05:56:31.020Z,11.67
2018-08-22T05:58:58.609Z,12.27
2018-08-22T06:01:26.217Z,12.10
2018-08-22T06:03:53.791Z,12.37
2018-08-22T06:06:21.633Z,11.70
2018-08-22T06:08:49.204Z,13.17
2018-08-22T06:11:16.781Z,12.40
2018-08-22T06:13:44.360Z,11.87
2018-08-22T06:16:11.953Z,11.37
2018-08-22T06:18:39.578Z,10.90
2018-08-22T06:21:07.157Z,12.03
2018-08-22T06:23:34.768Z,11.10
2018-08-22T06:26:02.332Z,12.27
2018-08-22T06:28:29.912Z,10.73
2018-08-22T06:30:57.472Z,10.77
2018-08-22T06:33:25.085Z,11.60
2018-08-22T06:35:52.672Z,13.33
2018-08-22T06:38:22.277Z,11.50
2018-08-22T06:40:49.854Z,13.40
2018-08-22T06:43:18.477Z,11.33
2018-08-22T06:45:46.056Z,11.10
2018-08-22T06:48:13.626Z,11.23
2018-08-22T06:50:41.214Z,11.73
2018-08-22T06:53:08.791Z,11.87
2018-08-22T06:55:36.382Z,12.30
2018-08-22T06:58:03.978Z,10.63
2018-08-22T07:00:31.565Z,11.30
2018-08-22T07:02:59.175Z,10.97
2018-08-22T07:05:26.757Z,10.70
2018-08-22T07:07:54.342Z,12.10
2018-08-22T07:10:21.953Z,10.97
2018-08-22T07:12:49.530Z,9.90
2018-08-22T07:15:17.109Z,11.17
2018-08-22T07:17:44.678Z,11.20
2018-08-22T07:20:12.261Z,12.23
2018-08-22T07:22:39.825Z,10.90
2018-08-22T07:25:07.465Z,10.37
2018-08-22T07:27:35.069Z,10.67
2018-08-22T07:30:02.814Z,9.97
2018-08-22T07:32:30.468Z,11.40
2018-08-22T07:34:59.025Z,16.10
2018-08-22T07:37:26.589Z,11.63
2018-08-22T07:39:54.176Z,10.77
2018-08-22T07:42:21.749Z,10.97
2018-08-22T07:44:49.341Z,10.27
2018-08-22T07:47:17.006Z,10.70
2018-08-22T07:49:44.601Z,10.07
2018-08-22T07:52:12.187Z,10.80
2018-08-22T07:54:45.644Z,10.33
2018-08-22T07:57:14.589Z,10.30
2018-08-22T07:59:42.185Z,13.83
2018-08-22T08:02:09.762Z,10.97
2018-08-22T08:04:37.369Z,12.43
2018-08-22T08:07:05.241Z,10.23
2018-08-22T08:09:32.828Z,10.20
2018-08-22T08:12:00.460Z,10.20
2018-08-22T08:14:28.025Z,9.57
2018-08-22T08:16:55.643Z,11.37
2018-08-22T08:19:23.193Z,10.40
2018-08-22T08:21:50.758Z,10.40
2018-08-22T08:24:18.341Z,11.40
2018-08-22T08:26:45.935Z,9.53
2018-08-22T08:29:13.494Z,11.17
2018-08-22T08:31:41.174Z,12.03
2018-08-22T08:34:08.749Z,10.33
2018-08-22T08:36:36.341Z,10.97
2018-08-22T08:39:06.987Z,9.83
2018-08-22T08:41:34.638Z,9.90
2018-08-22T08:44:02.217Z,11.20
2018-08-22T08:46:29.813Z,12.17
2018-08-22T08:48:57.397Z,9.10
2018-08-22T08:51:25.269Z,10.13
2018-08-22T08:53:52.837Z,10.33
2018-08-22T08:56:20.438Z,11.83
2018-08-22T08:58:48.021Z,10.83
2018-08-22T09:01:15.617Z,10.13
2018-08-22T09:03:43.452Z,10.50
2018-08-22T09:06:11.043Z,10.27
2018-08-22T09:08:38.637Z,11.37
2018-08-22T09:11:06.229Z,9.30
2018-08-22T09:13:36.379Z,10.70
2018-08-22T09:16:03.990Z,10.70
2018-08-22T09:18:31.561Z,9.10
2018-08-22T09:20:59.175Z,9.67
2018-08-22T09:23:26.737Z,10.73
2018-08-22T09:25:54.340Z,10.10
2018-08-22T09:28:21.958Z,9.50
2018-08-22T09:30:49.693Z,9.10
2018-08-22T09:33:17.260Z,8.80
2018-08-22T09:35:45.327Z,9.60
2018-08-22T09:38:13.695Z,9.50
2018-08-22T09:40:42.479Z,11.10
2018-08-22T09:43:10.368Z,9.73
2018-08-22T09:45:38.556Z,9.40
2018-08-22T09:48:08.230Z,11.93
2018-08-22T09:50:38.292Z,9.67
2018-08-22T09:53:05.974Z,8.97
2018-08-22T09:55:33.600Z,9.30
2018-08-22T09:58:01.204Z,9.50
2018-08-22T10:00:34.463Z,10.87
2018-08-22T10:03:02.057Z,9.43
2018-08-22T10:05:29.620Z,7.53
2018-08-22T10:07:57.195Z,8.90
2018-08-22T10:10:24.778Z,9.43
2018-08-22T10:12:52.356Z,8.83
2018-08-22T10:15:19.985Z,8.50
2018-08-22T10:17:47.585Z,11.40
2018-08-22T10:20:15.144Z,8.60
2018-08-22T10:22:42.746Z,10.87
2018-08-22T10:25:10.337Z,9.77
2018-08-22T10:27:37.950Z,10.07
2018-08-22T10:30:05.941Z,9.30
2018-08-22T10:32:33.549Z,9.97
2018-08-22T10:35:01.127Z,8.13
2018-08-22T10:37:28.754Z,10.87
2018-08-22T10:39:56.308Z,10.43
2018-08-22T10:42:23.893Z,9.33
2018-08-22T10:44:51.448Z,9.30
2018-08-22T10:47:19.048Z,9.83
2018-08-22T10:49:46.674Z,8.73
2018-08-22T10:52:14.241Z,8.67
2018-08-22T10:54:41.823Z,9.40
2018-08-22T10:57:09.386Z,7.53
2018-08-22T10:59:36.949Z,8.23
2018-08-22T11:02:04.676Z,9.67
2018-08-22T11:04:32.209Z,8.90
2018-08-22T11:06:59.817Z,7.83
2018-08-22T11:09:30.893Z,8.30
2018-08-22T11:11:58.485Z,7.93
2018-08-22T11:14:26.048Z,9.23
2018-08-22T11:16:53.650Z,8.37
2018-08-22T11:19:22.245Z,9.10
2018-08-22T11:22:01.126Z,8.07
2018-08-22T11:24:40.157Z,8.70
2018-08-22T11:27:19.136Z,9.03
2018-08-22T11:29:58.005Z,8.20
2018-08-22T11:32:37.136Z,8.13
2018-08-22T11:35:03.655Z,9.67
2018-08-22T11:37:31.230Z,7.80
2018-08-22T11:39:58.837Z,7.93
2018-08-22T11:42:26.414Z,8.17
2018-08-22T11:44:53.992Z,10.00
2018-08-22T11:47:21.581Z,8.87
2018-08-22T11:49:49.166Z,9.00
2018-08-22T11:52:16.761Z,8.63
2018-08-22T11:54:44.330Z,12.30
2018-08-22T11:57:11.929Z,8.43
2018-08-22T11:59:39.511Z,8.97
2018-08-22T12:02:07.084Z,8.10
2018-08-22T12:04:34.681Z,8.73
2018-08-22T12:07:02.272Z,9.23
2018-08-22T12:09:29.840Z,8.13
2018-08-22T12:11:57.449Z,8.43
2018-08-22T12:14:25.002Z,8.30
2018-08-22T12:16:52.617Z,7.80
2018-08-22T12:19:20.209Z,7.63
2018-08-22T12:21:47.776Z,8.70
2018-08-22T12:24:15.370Z,8.60
2018-08-22T12:26:42.942Z,8.33
2018-08-22T12:29:10.990Z,8.20
2018-08-22T12:31:38.610Z,8.60
2018-08-22T12:34:06.189Z,8.37
2018-08-22T12:36:33.759Z,8.20
2018-08-22T12:39:01.355Z,7.90
2018-08-22T12:41:28.946Z,7.03
2018-08-22T12:43:56.537Z,7.80
2018-08-22T12:46:24.127Z,6.97
2018-08-22T12:48:52.005Z,7.43
2018-08-22T12:51:19.908Z,7.50
2018-08-22T12:53:47.501Z,6.70
2018-08-22T12:56:16.137Z,7.23
2018-08-22T12:58:43.721Z,6.37
2018-08-22T13:01:11.309Z,7.13
2018-08-22T13:03:38.911Z,6.97
2018-08-22T13:06:06.917Z,7.03
2018-08-22T13:08:34.493Z,6.60
2018-08-22T13:11:02.414Z,5.97
2018-08-22T13:13:30.257Z,5.90
2018-08-22T13:15:57.877Z,6.47
2018-08-22T13:18:25.472Z,5.67
2018-08-22T13:20:53.077Z,7.37
2018-08-22T13:23:20.686Z,6.87
2018-08-22T13:25:48.272Z,6.60
2018-08-22T13:28:16.113Z,6.67
2018-08-22T13:30:43.680Z,6.70
2018-08-22T13:33:11.293Z,6.17
2018-08-22T13:35:38.884Z,6.40
2018-08-22T13:38:07.533Z,5.70
2018-08-22T13:40:35.119Z,6.70
2018-08-22T13:43:02.721Z,5.80
2018-08-22T13:45:30.301Z,5.63
2018-08-22T13:47:57.933Z,5.63
2018-08-22T13:50:25.564Z,7.70
2018-08-22T13:52:53.189Z,6.73
2018-08-22T13:55:20.764Z,6.30
2018-08-22T13:57:48.348Z,7.80
2018-08-22T14:00:15.929Z,7.40
2018-08-22T14:02:43.813Z,6.87
2018-08-22T14:05:11.416Z,7.07
2018-08-22T14:07:38.977Z,6.33
2018-08-22T14:10:06.701Z,6.80
2018-08-22T14:12:34.281Z,6.37
2018-08-22T14:15:01.896Z,6.60
2018-08-22T14:17:29.482Z,7.07
2018-08-22T14:19:57.089Z,6.90
2018-08-22T14:22:24.680Z,6.50
2018-08-22T14:24:52.253Z,6.80
2018-08-22T14:27:19.849Z,7.17
2018-08-22T14:29:47.418Z,7.70
2018-08-22T14:32:15.110Z,7.13
2018-08-22T14:34:42.697Z,7.50
2018-08-22T14:37:10.301Z,7.37
2018-08-22T14:39:37.889Z,6.90
2018-08-22T14:42:05.493Z,8.13
2018-08-22T14:44:33.053Z,8.37
2018-08-22T14:47:00.649Z,8.00
2018-08-22T14:49:28.256Z,8.13
2018-08-22T14:51:55.842Z,6.90
2018-08-22T14:54:23.458Z,8.50
2018-08-22T14:56:51.053Z,7.40
2018-08-22T14:59:18.657Z,8.10
2018-08-22T15:01:46.285Z,7.70
2018-08-22T15:04:13.862Z,7.67
2018-08-22T15:06:41.464Z,6.40
2018-08-22T15:09:17.450Z,10.20
2018-08-22T15:11:45.083Z,8.20
2018-08-22T15:14:12.660Z,15.40
2018-08-22T15:16:40.273Z,7.77
2018-08-22T15:19:08.936Z,7.30
2018-08-22T15:21:36.630Z,7.50
2018-08-22T15:24:05.301Z,7.80
2018-08-22T15:26:32.937Z,7.33
2018-08-22T15:29:00.529Z,7.13
2018-08-22T15:31:28.110Z,8.27
2018-08-22T15:33:55.693Z,7.20
2018-08-22T15:36:23.313Z,7.80
2018-08-22T15:38:50.955Z,7.97
2018-08-22T15:41:18.638Z,7.30
2018-08-22T15:43:46.296Z,7.67
2018-08-22T15:46:13.871Z,7.47
2018-08-22T15:48:41.447Z,7.70
2018-08-22T15:51:09.085Z,7.27
2018-08-22T15:53:36.670Z,8.63
2018-08-22T15:56:04.381Z,7.10
2018-08-22T15:58:31.977Z,9.20
2018-08-22T16:00:59.565Z,9.50
2018-08-22T16:03:27.138Z,8.53
2018-08-22T16:05:55.633Z,8.87
2018-08-22T16:08:24.737Z,9.20
2018-08-22T16:10:52.320Z,7.80
2018-08-22T16:13:25.489Z,7.93
2018-08-22T16:15:55.158Z,9.17
2018-08-22T16:18:22.801Z,8.93
2018-08-22T16:20:58.490Z,8.93
2018-08-22T16:23:28.506Z,11.97
2018-08-22T16:25:57.255Z,8.10
2018-08-22T16:28:25.515Z,9.17
2018-08-22T16:30:57.700Z,7.80
2018-08-22T16:33:22.749Z,8.37
2018-08-22T16:35:50.346Z,9.13
2018-08-22T16:38:17.947Z,8.03
2018-08-22T16:40:53.812Z,7.57
2018-08-22T16:43:37.962Z,9.00
2018-08-22T16:46:08.922Z,8.63
2018-08-22T16:48:36.878Z,8.77
2018-08-22T16:51:04.618Z,8.00
2018-08-22T16:53:32.617Z,8.20
2018-08-22T16:56:00.185Z,9.33
2018-08-22T16:58:27.826Z,8.30
2018-08-22T17:00:55.385Z,7.70
2018-08-22T17:03:22.994Z,7.57
2018-08-22T17:05:58.382Z,8.37
2018-08-22T17:08:25.986Z,10.67
2018-08-22T17:11:02.717Z,8.20
2018-08-22T17:13:38.328Z,8.93
2018-08-22T17:16:06.065Z,7.70
2018-08-22T17:18:33.625Z,8.53
2018-08-22T17:21:01.257Z,9.97
2018-08-22T17:23:28.834Z,10.53
2018-08-22T17:25:56.444Z,8.77
2018-08-22T17:28:28.561Z,9.73
2018-08-22T17:30:56.378Z,9.27
2018-08-22T17:33:30.161Z,10.07
2018-08-22T17:35:58.200Z,8.67
2018-08-22T17:38:26.005Z,9.33
2018-08-22T17:40:53.594Z,11.00
2018-08-22T17:43:21.140Z,9.73
2018-08-22T17:45:48.738Z,9.87
2018-08-22T17:48:16.332Z,11.23
2018-08-22T17:50:43.937Z,9.20
2018-08-22T17:53:11.538Z,10.67
2018-08-22T17:55:39.117Z,13.90
2018-08-22T17:58:07.713Z,9.50
2018-08-22T18:00:36.703Z,12.60
2018-08-22T18:03:04.395Z,11.03
2018-08-22T18:05:35.045Z,10.53
2018-08-22T18:08:04.741Z,12.10
2018-08-22T18:10:34.905Z,9.50
2018-08-22T18:13:09.190Z,8.87
2018-08-22T18:15:37.082Z,9.73
2018-08-22T18:18:05.409Z,9.80
2018-08-22T18:20:37.200Z,12.30
2018-08-22T18:23:04.858Z,9.87
2018-08-22T18:25:32.447Z,9.37
2018-08-22T18:28:06.366Z,9.10
2018-08-22T18:30:34.196Z,9.60
2018-08-22T18:33:01.961Z,9.50
2018-08-22T18:35:29.529Z,8.57
2018-08-22T18:37:57.172Z,8.83
2018-08-22T18:40:26.989Z,9.03
2018-08-22T18:42:56.209Z,10.50
2018-08-22T18:45:24.573Z,20.90
2018-08-22T18:47:52.153Z,11.60
2018-08-22T18:50:20.108Z,9.93
2018-08-22T18:52:52.794Z,10.27
2018-08-22T18:55:21.601Z,12.23
2018-08-22T18:57:49.320Z,9.87
2018-08-22T19:00:16.969Z,9.80
2018-08-22T19:02:44.585Z,11.30
2018-08-22T19:05:24.728Z,10.37
2018-08-22T19:08:01.690Z,9.17
2018-08-22T19:10:31.621Z,13.23
2018-08-22T19:13:04.193Z,9.37
2018-08-22T19:15:31.881Z,9.87
2018-08-22T19:17:59.573Z,9.80
2018-08-22T19:20:27.170Z,11.60
2018-08-22T19:22:54.837Z,11.60
2018-08-22T19:25:24.038Z,9.10
2018-08-22T19:27:53.455Z,8.20
2018-08-22T19:30:21.937Z,11.00
2018-08-22T19:32:55.467Z,8.67
2018-08-22T19:35:23.069Z,8.67
2018-08-22T19:37:55.221Z,9.27
2018-08-22T19:40:24.493Z,9.57
2018-08-22T19:42:52.101Z,8.53
2018-08-22T19:45:19.677Z,8.90
2018-08-22T19:47:48.264Z,9.30
2018-08-22T19:50:15.832Z,10.77
2018-08-22T19:52:43.422Z,8.83
2018-08-22T19:55:11.030Z,9.67
2018-08-22T19:57:40.078Z,13.47
2018-08-22T20:00:09.284Z,11.03
2018-08-22T20:02:37.144Z,9.73
2018-08-22T20:05:05.556Z,10.53
2018-08-22T20:07:33.174Z,10.30
2018-08-22T20:10:00.829Z,10.80
2018-08-22T20:12:42.080Z,11.70
2018-08-22T20:15:09.705Z,9.60
2018-08-22T20:17:37.304Z,9.13
2018-08-22T20:20:05.812Z,9.83
2018-08-22T20:22:38.093Z,8.70
2018-08-22T20:25:06.604Z,10.27
2018-08-22T20:27:34.192Z,9.20
2018-08-22T20:30:08.317Z,10.43
2018-08-22T20:32:35.903Z,9.87
2018-08-22T20:35:03.536Z,12.07
2018-08-22T20:37:31.165Z,10.17
2018-08-22T20:40:05.006Z,10.17
2018-08-22T20:42:33.753Z,14.10
2018-08-22T20:45:01.254Z,10.47
2018-08-22T20:47:29.497Z,8.53
2018-08-22T20:49:57.165Z,11.30
2018-08-22T20:52:24.789Z,11.33
2018-08-22T20:54:58.557Z,10.93
2018-08-22T20:57:26.556Z,9.50
2018-08-22T20:59:54.224Z,9.23
2018-08-22T21:02:21.830Z,11.10
2018-08-22T21:04:49.428Z,9.40
2018-08-22T21:07:20.845Z,10.33
2018-08-22T21:09:48.754Z,10.27
2018-08-22T21:12:16.577Z,10.83
2018-08-22T21:14:44.270Z,10.10
2018-08-22T21:17:11.797Z,10.03
2018-08-22T21:19:39.406Z,10.73
2018-08-22T21:22:20.379Z,11.43
2018-08-22T21:24:47.969Z,10.53
2018-08-22T21:27:15.613Z,10.10
2018-08-22T21:29:43.262Z,9.70
2018-08-22T21:32:10.865Z,10.23
2018-08-22T21:34:38.426Z,10.40
2018-08-22T21:37:21.829Z,9.80
2018-08-22T21:39:49.497Z,13.20
2018-08-22T21:42:32.953Z,11.33
2018-08-22T21:45:01.032Z,10.00
2018-08-22T21:47:28.620Z,10.07
2018-08-22T21:49:56.245Z,10.03
2018-08-22T21:52:23.858Z,9.60
2018-08-22T21:54:51.487Z,10.70
2018-08-22T21:57:19.045Z,9.93
2018-08-22T21:59:52.303Z,12.67
2018-08-22T22:02:20.256Z,11.93
2018-08-22T22:04:47.815Z,9.70
2018-08-22T22:07:15.424Z,9.80
2018-08-22T22:09:43.061Z,11.03
2018-08-22T22:12:16.395Z,10.13
2018-08-22T22:14:44.862Z,11.60
2018-08-22T22:17:12.436Z,10.27
2018-08-22T22:19:40.069Z,12.20
2018-08-22T22:22:07.662Z,9.93
2018-08-22T22:24:56.689Z,10.33
2018-08-22T22:27:24.618Z,9.60
2018-08-22T22:30:00.427Z,11.67
2018-08-22T22:32:28.001Z,11.00
2018-08-22T22:34:56.574Z,10.10
2018-08-22T22:37:25.205Z,11.17
2018-08-22T22:39:52.817Z,10.20
2018-08-22T22:42:26.127Z,11.00
2018-08-22T22:44:54.900Z,10.50
2018-08-22T22:47:30.863Z,9.63
2018-08-22T22:49:59.022Z,10.07
2018-08-22T22:52:28.948Z,12.00
2018-08-22T22:54:57.724Z,10.17
2018-08-22T22:57:25.411Z,10.40
2018-08-22T22:59:53.360Z,10.97
2018-08-22T23:02:22.831Z,9.90
2018-08-22T23:04:51.350Z,10.83
2018-08-22T23:07:22.632Z,13.17
2018-08-22T23:09:53.633Z,10.17
2018-08-22T23:12:39.929Z,12.30
2018-08-22T23:15:08.489Z,10.87
2018-08-22T23:17:36.068Z,11.50
2018-08-22T23:20:21.872Z,10.83
2018-08-22T23:22:49.437Z,11.43
2018-08-22T23:25:17.043Z,11.27
2018-08-22T23:27:44.615Z,11.60
2018-08-22T23:30:16.004Z,10.57
2018-08-22T23:32:43.769Z,10.83
2018-08-22T23:35:20.705Z,11.10
2018-08-22T23:38:08.347Z,11.70
2018-08-22T23:40:36.870Z,11.70
2018-08-22T23:43:04.472Z,12.07
2018-08-22T23:45:35.684Z,11.70
2018-08-22T23:48:03.920Z,10.73
2018-08-22T23:50:48.212Z,10.47
2018-08-22T23:53:15.810Z,10.90
2018-08-22T23:55:43.375Z,10.83
2018-08-22T23:58:10.999Z,10.77
